createdAt,value
2017-08-27T00:00:27.657Z,18.30
2017-08-27T00:02:55.300Z,18.40
2017-08-27T00:05:23.006Z,18.30
2017-08-27T00:07:50.697Z,18.30
2017-08-27T00:10:18.318Z,18.30
2017-08-27T00:12:45.980Z,18.30
2017-08-27T00:15:13.649Z,18.30
2017-08-27T00:17:41.311Z,18.30
2017-08-27T00:20:09.179Z,18.30
2017-08-27T00:22:36.946Z,18.30
2017-08-27T00:25:04.616Z,18.30
2017-08-27T00:27:32.313Z,18.20
2017-08-27T00:29:59.996Z,18.20
2017-08-27T00:32:27.635Z,18.20
2017-08-27T00:34:55.308Z,18.20
2017-08-27T00:37:23.042Z,18.20
2017-08-27T00:39:50.729Z,18.20
2017-08-27T00:42:18.497Z,18.30
2017-08-27T00:44:46.219Z,18.20
2017-08-27T00:47:13.990Z,18.20
2017-08-27T00:49:41.679Z,18.20
2017-08-27T00:52:09.380Z,18.20
2017-08-27T00:54:37.032Z,18.30
2017-08-27T00:57:04.732Z,18.30
2017-08-27T00:59:32.391Z,18.20
2017-08-27T01:02:00.060Z,18.20
2017-08-27T01:04:27.681Z,18.20
2017-08-27T01:06:55.337Z,18.20
2017-08-27T01:09:23.022Z,18.20
2017-08-27T01:11:50.690Z,18.20
2017-08-27T01:14:18.301Z,18.20
2017-08-27T01:16:45.979Z,18.20
2017-08-27T01:19:13.700Z,18.20
2017-08-27T01:21:41.305Z,18.30
2017-08-27T01:24:09.005Z,18.20
2017-08-27T01:26:36.746Z,18.20
2017-08-27T01:29:04.558Z,18.20
2017-08-27T01:31:32.156Z,18.20
2017-08-27T01:33:59.922Z,18.10
2017-08-27T01:36:27.583Z,18.10
2017-08-27T01:38:55.349Z,18.10
2017-08-27T01:41:22.972Z,18.00
2017-08-27T01:43:51.526Z,18.00
2017-08-27T01:46:19.228Z,18.00
2017-08-27T01:48:46.863Z,17.90
2017-08-27T01:51:14.507Z,17.90
2017-08-27T01:53:42.202Z,17.90
2017-08-27T01:56:09.805Z,17.90
2017-08-27T01:58:37.467Z,17.90
2017-08-27T02:01:05.384Z,17.90
2017-08-27T02:03:33.293Z,17.90
2017-08-27T02:06:00.934Z,17.90
2017-08-27T02:08:28.689Z,17.90
2017-08-27T02:10:56.416Z,17.90
2017-08-27T02:13:24.072Z,17.90
2017-08-27T02:15:51.838Z,17.90
2017-08-27T02:18:19.628Z,17.90
2017-08-27T02:20:47.398Z,17.80
2017-08-27T02:23:15.089Z,17.80
2017-08-27T02:25:42.760Z,17.90
2017-08-27T02:28:10.442Z,17.80
2017-08-27T02:30:38.182Z,17.90
2017-08-27T02:33:05.875Z,17.80
2017-08-27T02:35:33.664Z,17.80
2017-08-27T02:38:01.300Z,17.80
2017-08-27T02:40:34.252Z,17.90
2017-08-27T02:43:01.929Z,17.80
2017-08-27T02:45:29.611Z,17.80
2017-08-27T02:47:57.329Z,17.70
2017-08-27T02:50:24.967Z,17.70
2017-08-27T02:52:52.634Z,17.70
2017-08-27T02:55:20.396Z,17.70
2017-08-27T02:57:48.054Z,17.60
2017-08-27T03:00:15.689Z,17.60
2017-08-27T03:02:43.320Z,17.60
2017-08-27T03:05:10.959Z,17.50
2017-08-27T03:07:38.645Z,17.50
2017-08-27T03:10:06.363Z,17.50
2017-08-27T03:12:34.072Z,17.40
2017-08-27T03:15:01.744Z,17.30
2017-08-27T03:17:29.449Z,17.20
2017-08-27T03:19:57.662Z,17.20
2017-08-27T03:22:25.345Z,17.10
2017-08-27T03:24:52.991Z,17.10
2017-08-27T03:27:20.662Z,17.10
2017-08-27T03:29:48.317Z,17.00
2017-08-27T03:32:15.948Z,17.00
2017-08-27T03:34:43.706Z,17.00
2017-08-27T03:37:11.296Z,16.90
2017-08-27T03:39:38.938Z,17.00
2017-08-27T03:42:06.562Z,16.90
2017-08-27T03:44:34.180Z,16.80
2017-08-27T03:47:02.005Z,16.80
2017-08-27T03:49:29.663Z,16.80
2017-08-27T03:51:57.335Z,16.70
2017-08-27T03:54:24.971Z,16.60
2017-08-27T03:56:52.638Z,16.60
2017-08-27T03:59:20.355Z,16.60
2017-08-27T04:01:48.013Z,16.60
2017-08-27T04:04:15.738Z,16.60
2017-08-27T04:06:43.433Z,16.50
2017-08-27T04:09:11.975Z,16.50
2017-08-27T04:11:39.679Z,16.40
2017-08-27T04:14:07.353Z,16.40
2017-08-27T04:16:35.061Z,16.40
2017-08-27T04:19:02.925Z,16.20
2017-08-27T04:21:30.767Z,16.10
2017-08-27T04:23:58.433Z,16.10
2017-08-27T04:26:26.069Z,16.10
2017-08-27T04:28:53.757Z,16.00
2017-08-27T04:31:21.365Z,16.00
2017-08-27T04:33:48.985Z,16.00
2017-08-27T04:36:16.654Z,16.10
2017-08-27T04:38:44.306Z,16.00
2017-08-27T04:41:11.975Z,16.10
2017-08-27T04:43:43.551Z,16.10
2017-08-27T04:46:11.167Z,15.80
2017-08-27T04:48:38.747Z,15.70
2017-08-27T04:51:06.433Z,15.70
2017-08-27T04:53:42.653Z,15.80
2017-08-27T04:56:10.276Z,15.80
2017-08-27T04:58:46.021Z,15.80
2017-08-27T05:01:21.559Z,15.80
2017-08-27T05:09:34.889Z,15.90
2017-08-27T05:12:02.467Z,16.00
2017-08-27T05:14:30.153Z,16.10
2017-08-27T05:16:57.944Z,16.20
2017-08-27T05:19:25.597Z,16.30
2017-08-27T05:21:53.258Z,16.30
2017-08-27T05:24:21.094Z,16.30
2017-08-27T05:26:48.692Z,16.40
2017-08-27T05:29:16.354Z,16.60
2017-08-27T05:31:44.106Z,16.70
2017-08-27T05:34:11.750Z,16.70
2017-08-27T05:36:39.374Z,16.80
2017-08-27T05:39:06.992Z,17.00
2017-08-27T05:41:34.601Z,17.10
2017-08-27T05:44:02.229Z,17.40
2017-08-27T05:46:31.402Z,17.60
2017-08-27T05:48:59.081Z,17.70
2017-08-27T05:51:26.795Z,17.80
2017-08-27T05:53:54.393Z,17.90
2017-08-27T05:56:21.980Z,18.10
2017-08-27T05:58:49.664Z,18.20
2017-08-27T06:01:17.298Z,18.30
2017-08-27T06:03:44.921Z,18.10
2017-08-27T06:06:12.566Z,18.00
2017-08-27T06:08:57.184Z,18.40
2017-08-27T06:11:24.861Z,18.70
2017-08-27T06:13:52.488Z,19.00
2017-08-27T06:16:20.125Z,18.90
2017-08-27T06:18:47.761Z,19.20
2017-08-27T06:21:15.386Z,19.30
2017-08-27T06:23:43.028Z,19.30
2017-08-27T06:26:11.302Z,19.10
2017-08-27T06:28:55.502Z,19.20
2017-08-27T06:31:33.954Z,19.30
2017-08-27T06:34:02.496Z,19.50
2017-08-27T06:36:30.122Z,19.10
2017-08-27T06:38:57.837Z,18.70
2017-08-27T06:41:25.648Z,18.50
2017-08-27T06:43:53.266Z,18.70
2017-08-27T06:46:20.877Z,18.90
2017-08-27T06:48:48.530Z,18.80
2017-08-27T06:51:16.182Z,18.90
2017-08-27T06:53:43.806Z,19.80
2017-08-27T06:56:11.435Z,20.90
2017-08-27T06:58:40.237Z,20.80
2017-08-27T07:01:07.921Z,20.70
2017-08-27T07:03:35.526Z,21.20
2017-08-27T07:06:03.267Z,21.50
2017-08-27T07:08:30.858Z,22.10
2017-08-27T07:10:58.645Z,21.10
2017-08-27T07:13:26.394Z,22.00
2017-08-27T07:15:54.121Z,22.70
2017-08-27T07:18:21.841Z,23.40
2017-08-27T07:21:02.778Z,23.30
2017-08-27T07:23:30.401Z,23.40
2017-08-27T07:25:57.995Z,24.30
2017-08-27T07:28:25.690Z,23.50
2017-08-27T07:30:53.355Z,23.70
2017-08-27T07:33:21.016Z,23.30
2017-08-27T07:35:48.624Z,22.50
2017-08-27T07:38:16.281Z,23.60
2017-08-27T07:40:43.905Z,24.80
2017-08-27T07:43:11.599Z,25.70
2017-08-27T07:45:39.382Z,25.90
2017-08-27T07:48:07.032Z,26.40
2017-08-27T07:50:34.732Z,26.60
2017-08-27T07:53:02.424Z,25.60
2017-08-27T07:55:30.072Z,25.40
2017-08-27T07:57:57.724Z,24.80
2017-08-27T08:00:25.339Z,25.60
2017-08-27T08:02:53.015Z,25.80
2017-08-27T08:05:20.652Z,25.10
2017-08-27T08:07:48.271Z,24.90
2017-08-27T08:10:15.920Z,25.10
2017-08-27T08:12:43.550Z,25.10
2017-08-27T08:15:11.150Z,25.10
2017-08-27T08:17:38.842Z,24.70
2017-08-27T08:20:06.507Z,25.80
2017-08-27T08:22:34.200Z,26.20
2017-08-27T08:25:03.185Z,26.90
2017-08-27T08:27:30.868Z,25.80
2017-08-27T08:29:58.574Z,25.40
2017-08-27T08:32:26.168Z,26.30
2017-08-27T08:34:53.814Z,26.80
2017-08-27T08:37:21.483Z,27.60
2017-08-27T08:39:49.091Z,26.50
2017-08-27T08:42:16.706Z,27.30
2017-08-27T08:44:44.413Z,27.40
2017-08-27T08:47:12.068Z,27.10
2017-08-27T08:49:39.710Z,28.30
2017-08-27T08:52:07.476Z,26.60
2017-08-27T08:54:35.158Z,27.90
2017-08-27T08:57:02.849Z,28.00
2017-08-27T08:59:30.495Z,28.00
2017-08-27T09:01:58.102Z,27.10
2017-08-27T09:04:25.741Z,27.20
2017-08-27T09:06:53.443Z,28.30
2017-08-27T09:09:21.140Z,27.40
2017-08-27T09:11:48.771Z,28.10
2017-08-27T09:14:16.363Z,28.90
2017-08-27T09:16:44.047Z,27.80
2017-08-27T09:19:11.714Z,28.00
2017-08-27T09:21:39.660Z,27.90
2017-08-27T09:24:07.413Z,28.00
2017-08-27T09:26:35.092Z,28.40
2017-08-27T09:29:02.716Z,28.30
2017-08-27T09:31:30.344Z,27.20
2017-08-27T09:33:58.058Z,26.20
2017-08-27T09:36:25.791Z,27.30
2017-08-27T09:38:53.401Z,27.70
2017-08-27T09:41:21.028Z,28.00
2017-08-27T09:43:48.620Z,28.40
2017-08-27T09:46:16.434Z,28.40
2017-08-27T09:48:45.223Z,28.60
2017-08-27T09:51:12.963Z,28.60
2017-08-27T09:53:40.584Z,27.20
2017-08-27T09:56:08.236Z,26.30
2017-08-27T09:58:35.840Z,26.90
2017-08-27T10:01:03.540Z,26.40
2017-08-27T10:03:31.148Z,27.70
2017-08-27T10:05:58.856Z,28.50
2017-08-27T10:08:26.586Z,27.80
2017-08-27T10:10:54.212Z,27.80
2017-08-27T10:13:21.820Z,28.30
2017-08-27T10:15:49.484Z,28.30
2017-08-27T10:18:17.117Z,27.80
2017-08-27T10:20:44.716Z,28.70
2017-08-27T10:23:12.666Z,27.90
2017-08-27T10:25:41.419Z,27.30
2017-08-27T10:28:09.089Z,27.30
2017-08-27T10:30:36.738Z,27.30
2017-08-27T10:33:04.399Z,27.60
2017-08-27T10:35:32.056Z,27.30
2017-08-27T10:37:59.718Z,27.80
2017-08-27T10:40:27.333Z,27.70
2017-08-27T10:42:54.948Z,28.50
2017-08-27T10:45:22.595Z,29.20
2017-08-27T10:47:50.345Z,29.20
2017-08-27T10:50:17.979Z,29.50
2017-08-27T10:52:45.782Z,28.70
2017-08-27T10:55:13.366Z,28.70
2017-08-27T10:57:41.032Z,29.20
2017-08-27T11:00:12.913Z,28.10
2017-08-27T11:02:41.168Z,28.00
2017-08-27T11:05:08.841Z,27.90
2017-08-27T11:07:41.718Z,28.00
2017-08-27T11:10:09.388Z,28.10
2017-08-27T11:12:37.921Z,28.90
2017-08-27T11:15:05.586Z,28.90
2017-08-27T11:17:33.254Z,28.40
2017-08-27T11:20:00.954Z,28.70
2017-08-27T11:22:28.569Z,27.90
2017-08-27T11:24:56.322Z,27.10
2017-08-27T11:27:24.896Z,27.20
2017-08-27T11:29:52.476Z,26.80
2017-08-27T11:32:20.063Z,27.00
2017-08-27T11:34:47.721Z,26.70
2017-08-27T11:37:15.328Z,26.60
2017-08-27T11:39:42.945Z,27.00
2017-08-27T11:42:10.667Z,27.00
2017-08-27T11:44:38.279Z,26.70
2017-08-27T11:47:05.876Z,27.10
2017-08-27T11:49:33.562Z,27.20
2017-08-27T11:52:01.255Z,26.80
2017-08-27T11:54:28.907Z,26.50
2017-08-27T11:56:56.547Z,27.10
2017-08-27T11:59:24.182Z,27.00
2017-08-27T12:01:51.784Z,26.80
2017-08-27T12:04:19.510Z,27.10
2017-08-27T12:06:47.119Z,26.80
2017-08-27T12:09:14.786Z,27.10
2017-08-27T12:11:42.424Z,26.50
2017-08-27T12:14:10.067Z,26.80
2017-08-27T12:16:37.779Z,26.80
2017-08-27T12:19:05.419Z,26.60
2017-08-27T12:21:33.008Z,26.50
2017-08-27T12:24:00.628Z,25.70
2017-08-27T12:26:28.280Z,25.80
2017-08-27T12:28:55.894Z,25.80
2017-08-27T12:31:23.500Z,25.90
2017-08-27T12:33:51.109Z,26.30
2017-08-27T12:36:18.695Z,26.30
2017-08-27T12:38:46.439Z,26.20
2017-08-27T12:41:14.112Z,26.60
2017-08-27T12:43:41.772Z,26.60
2017-08-27T12:46:09.472Z,26.40
2017-08-27T12:48:37.189Z,26.30
2017-08-27T12:51:21.291Z,26.60
2017-08-27T12:53:48.957Z,26.80
2017-08-27T12:56:16.628Z,26.80
2017-08-27T12:58:44.393Z,26.90
2017-08-27T13:01:12.064Z,26.50
2017-08-27T13:03:39.671Z,26.30
2017-08-27T13:06:07.305Z,25.90
2017-08-27T13:08:34.926Z,26.10
2017-08-27T13:11:02.521Z,26.30
2017-08-27T13:13:30.194Z,26.30
2017-08-27T13:15:57.852Z,26.30
2017-08-27T13:18:25.433Z,26.40
2017-08-27T13:20:53.008Z,25.80
2017-08-27T13:23:20.659Z,25.90
2017-08-27T13:25:48.303Z,25.90
2017-08-27T13:28:15.951Z,25.90
2017-08-27T13:30:43.668Z,25.80
2017-08-27T13:33:11.248Z,25.70
2017-08-27T13:35:38.920Z,26.10
2017-08-27T13:38:06.529Z,25.90
2017-08-27T13:40:34.135Z,26.10
2017-08-27T13:43:01.776Z,26.10
2017-08-27T13:45:29.408Z,25.90
2017-08-27T13:47:57.051Z,25.20
2017-08-27T13:50:24.638Z,25.30
2017-08-27T13:52:52.274Z,25.70
2017-08-27T13:55:19.907Z,25.80
2017-08-27T13:57:47.505Z,26.00
2017-08-27T14:00:15.147Z,25.60
2017-08-27T14:02:42.800Z,25.60
2017-08-27T14:05:10.438Z,25.70
2017-08-27T14:07:38.133Z,25.70
2017-08-27T14:10:05.736Z,25.90
2017-08-27T14:12:33.332Z,25.60
2017-08-27T14:15:00.971Z,25.70
2017-08-27T14:17:28.629Z,25.70
2017-08-27T14:19:56.274Z,25.60
2017-08-27T14:22:23.947Z,25.50
2017-08-27T14:24:51.535Z,25.40
2017-08-27T14:27:19.183Z,25.10
2017-08-27T14:29:46.788Z,25.40
2017-08-27T14:32:14.466Z,25.40
2017-08-27T14:34:42.208Z,25.60
2017-08-27T14:37:09.805Z,25.90
2017-08-27T14:39:37.403Z,25.70
2017-08-27T14:42:05.126Z,25.60
2017-08-27T14:44:32.708Z,25.60
2017-08-27T14:47:00.301Z,25.30
2017-08-27T14:49:27.960Z,25.40
2017-08-27T14:51:55.543Z,25.30
2017-08-27T14:54:23.132Z,25.00
2017-08-27T14:56:50.750Z,25.00
2017-08-27T14:59:18.374Z,24.90
2017-08-27T15:01:45.969Z,25.20
2017-08-27T15:04:13.600Z,25.30
2017-08-27T15:06:41.248Z,25.30
2017-08-27T15:09:08.923Z,25.20
2017-08-27T15:11:36.546Z,25.10
2017-08-27T15:14:04.188Z,24.80
2017-08-27T15:16:31.891Z,24.90
2017-08-27T15:18:59.480Z,25.00
2017-08-27T15:21:27.194Z,25.10
2017-08-27T15:23:54.951Z,24.90
2017-08-27T15:26:22.554Z,25.00
2017-08-27T15:28:50.518Z,24.90
2017-08-27T15:31:18.525Z,24.80
2017-08-27T15:33:46.199Z,24.70
2017-08-27T15:36:13.838Z,24.70
2017-08-27T15:38:41.449Z,24.90
2017-08-27T15:41:09.678Z,24.90
2017-08-27T15:43:37.864Z,24.90
2017-08-27T15:46:05.533Z,24.80
2017-08-27T15:48:33.157Z,24.70
2017-08-27T15:51:08.019Z,24.50
2017-08-27T15:53:35.634Z,24.50
2017-08-27T15:56:03.257Z,24.40
2017-08-27T15:58:30.879Z,24.50
2017-08-27T16:00:58.572Z,24.60
2017-08-27T16:03:26.277Z,24.60
2017-08-27T16:05:53.973Z,24.40
2017-08-27T16:08:21.604Z,24.60
2017-08-27T16:10:49.210Z,24.60
2017-08-27T16:13:16.788Z,24.60
2017-08-27T16:15:44.414Z,24.50
2017-08-27T16:18:11.986Z,24.50
2017-08-27T16:20:39.652Z,24.50
2017-08-27T16:23:07.262Z,24.30
2017-08-27T16:25:34.869Z,24.20
2017-08-27T16:28:02.525Z,24.30
2017-08-27T16:30:30.196Z,24.20
2017-08-27T16:32:57.826Z,24.20
2017-08-27T16:35:25.508Z,24.20
2017-08-27T16:37:53.152Z,24.20
2017-08-27T16:40:20.763Z,24.30
2017-08-27T16:42:48.427Z,24.20
2017-08-27T16:45:16.143Z,24.10
2017-08-27T16:47:43.776Z,24.10
2017-08-27T16:50:11.409Z,23.90
2017-08-27T16:52:39.074Z,24.00
2017-08-27T16:55:06.711Z,23.90
2017-08-27T16:57:34.350Z,23.90
2017-08-27T17:00:01.981Z,23.80
2017-08-27T17:02:29.669Z,23.80
2017-08-27T17:04:57.343Z,23.70
2017-08-27T17:07:25.020Z,23.70
2017-08-27T17:09:52.639Z,23.60
2017-08-27T17:12:20.361Z,23.60
2017-08-27T17:14:47.988Z,23.60
2017-08-27T17:17:15.666Z,23.60
2017-08-27T17:19:43.289Z,23.60
2017-08-27T17:22:10.879Z,23.50
2017-08-27T17:24:38.609Z,23.40
2017-08-27T17:27:06.289Z,23.40
2017-08-27T17:29:33.958Z,23.40
2017-08-27T17:32:01.582Z,23.40
2017-08-27T17:34:29.262Z,23.30
2017-08-27T17:36:56.841Z,23.30
2017-08-27T17:39:24.596Z,23.20
2017-08-27T17:41:52.268Z,23.20
2017-08-27T17:44:19.988Z,23.10
2017-08-27T17:46:47.609Z,23.10
2017-08-27T17:49:15.226Z,23.00
2017-08-27T17:51:42.828Z,22.90
2017-08-27T17:54:10.628Z,22.80
2017-08-27T17:56:38.228Z,22.80
2017-08-27T17:59:05.997Z,22.70
2017-08-27T18:01:33.654Z,22.60
2017-08-27T18:04:01.261Z,22.60
2017-08-27T18:06:29.802Z,22.50
2017-08-27T18:08:57.404Z,22.40
2017-08-27T18:11:24.997Z,22.30
2017-08-27T18:13:53.397Z,22.10
2017-08-27T18:16:29.243Z,22.10
2017-08-27T18:18:56.891Z,22.10
2017-08-27T18:21:24.516Z,22.00
2017-08-27T18:23:52.135Z,22.00
2017-08-27T18:26:19.837Z,22.00
2017-08-27T18:28:47.432Z,21.80
2017-08-27T18:31:15.061Z,21.80
2017-08-27T18:33:42.773Z,21.80
2017-08-27T18:36:10.425Z,21.70
2017-08-27T18:38:38.048Z,21.60
2017-08-27T18:41:05.797Z,21.60
2017-08-27T18:43:33.379Z,21.40
2017-08-27T18:46:01.075Z,21.40
2017-08-27T18:48:28.659Z,21.30
2017-08-27T18:50:56.291Z,21.30
2017-08-27T18:53:23.926Z,21.10
2017-08-27T18:58:29.690Z,20.60
2017-08-27T19:00:57.415Z,20.40
2017-08-27T19:03:25.065Z,20.30
2017-08-27T19:05:52.660Z,20.30
2017-08-27T19:08:20.358Z,20.40
2017-08-27T19:10:47.990Z,20.40
2017-08-27T19:13:19.954Z,20.50
2017-08-27T19:15:55.756Z,20.50
2017-08-27T19:18:23.428Z,20.50
2017-08-27T19:20:51.128Z,20.50
2017-08-27T19:23:18.816Z,20.40
2017-08-27T19:25:46.457Z,20.40
2017-08-27T19:28:14.141Z,20.40
2017-08-27T19:30:41.773Z,20.30
2017-08-27T19:33:09.582Z,20.00
2017-08-27T19:35:37.710Z,20.10
2017-08-27T19:38:07.587Z,20.10
2017-08-27T19:40:36.156Z,19.80
2017-08-27T19:43:03.876Z,19.70
2017-08-27T19:45:31.483Z,19.70
2017-08-27T19:48:02.600Z,19.70
2017-08-27T19:50:30.570Z,19.60
2017-08-27T19:52:58.432Z,19.60
2017-08-27T19:55:26.224Z,19.50
2017-08-27T19:57:53.825Z,19.30
2017-08-27T20:00:26.808Z,19.10
2017-08-27T20:02:54.629Z,18.90
2017-08-27T20:05:23.490Z,18.90
2017-08-27T20:07:51.146Z,18.80
2017-08-27T20:10:19.844Z,18.60
2017-08-27T20:12:47.528Z,18.50
2017-08-27T20:15:16.104Z,18.50
2017-08-27T20:17:44.717Z,18.40
2017-08-27T20:20:12.325Z,18.50
2017-08-27T20:22:40.144Z,18.70
2017-08-27T20:25:07.892Z,18.40
2017-08-27T20:27:35.583Z,18.30
2017-08-27T20:30:03.521Z,18.30
2017-08-27T20:32:31.258Z,18.50
2017-08-27T20:34:58.878Z,18.30
2017-08-27T20:37:26.529Z,18.10
2017-08-27T20:39:54.387Z,18.10
2017-08-27T20:42:22.149Z,18.10
2017-08-27T20:44:50.020Z,18.00
2017-08-27T20:47:18.151Z,18.20
2017-08-27T20:49:46.209Z,18.20
2017-08-27T20:52:13.929Z,18.20
2017-08-27T20:54:41.608Z,18.00
2017-08-27T20:57:09.538Z,17.90
2017-08-27T20:59:37.376Z,17.90
2017-08-27T21:02:05.416Z,17.90
2017-08-27T21:04:33.356Z,17.60
2017-08-27T21:07:01.186Z,17.50
2017-08-27T21:09:29.129Z,17.40
2017-08-27T21:11:56.817Z,17.40
2017-08-27T21:14:24.558Z,17.40
2017-08-27T21:16:52.186Z,17.30
2017-08-27T21:19:23.013Z,17.10
2017-08-27T21:21:50.645Z,17.10
2017-08-27T21:24:18.305Z,17.10
2017-08-27T21:26:45.962Z,16.90
2017-08-27T21:29:13.581Z,16.80
2017-08-27T21:31:41.209Z,16.80
2017-08-27T21:34:08.793Z,16.80
2017-08-27T21:36:36.417Z,16.70
2017-08-27T21:39:09.391Z,16.80
2017-08-27T21:41:37.158Z,16.70
2017-08-27T21:44:04.742Z,16.70
2017-08-27T21:46:42.228Z,16.70
2017-08-27T21:49:14.392Z,16.60
2017-08-27T21:52:03.315Z,16.60
2017-08-27T21:54:31.072Z,16.60
2017-08-27T21:57:01.904Z,16.60
2017-08-27T22:02:28.203Z,16.40
2017-08-27T22:04:56.794Z,16.40
2017-08-27T22:07:24.429Z,16.40
2017-08-27T22:10:13.940Z,16.40
2017-08-27T22:12:41.557Z,16.30
2017-08-27T22:15:09.158Z,16.20
2017-08-27T22:17:36.825Z,16.20
2017-08-27T22:20:04.419Z,16.30
2017-08-27T22:22:32.113Z,16.20
2017-08-27T22:24:59.775Z,16.20
2017-08-27T22:27:27.456Z,16.10
2017-08-27T22:30:01.871Z,16.00
2017-08-27T22:32:29.495Z,16.10
2017-08-27T22:34:57.119Z,16.10
2017-08-27T22:37:24.724Z,16.10
2017-08-27T22:39:52.334Z,16.10
2017-08-27T22:42:19.929Z,16.10
2017-08-27T22:44:47.604Z,16.10
2017-08-27T22:47:15.200Z,16.10
2017-08-27T22:49:42.847Z,16.00
2017-08-27T22:52:10.711Z,15.80
2017-08-27T22:54:38.362Z,15.70
2017-08-27T22:57:14.710Z,15.70
2017-08-27T22:59:42.381Z,15.70
2017-08-27T23:02:09.982Z,15.80
2017-08-27T23:04:37.633Z,15.80
2017-08-27T23:07:05.272Z,15.70
2017-08-27T23:09:32.870Z,15.70
2017-08-27T23:12:02.470Z,15.70
2017-08-27T23:14:30.195Z,15.70
2017-08-27T23:16:57.798Z,15.70
2017-08-27T23:19:25.495Z,15.70
2017-08-27T23:21:53.115Z,15.80
2017-08-27T23:24:20.759Z,15.60
2017-08-27T23:26:48.403Z,15.60
2017-08-27T23:29:16.034Z,15.40
2017-08-27T23:31:43.678Z,15.40
2017-08-27T23:34:11.340Z,15.40
2017-08-27T23:36:38.924Z,15.30
2017-08-27T23:39:06.513Z,15.20
2017-08-27T23:41:34.178Z,15.10
2017-08-27T23:44:01.787Z,15.20
2017-08-27T23:46:29.376Z,15.20
2017-08-27T23:48:57.048Z,15.20
2017-08-27T23:51:24.653Z,15.20
2017-08-27T23:53:52.260Z,15.10
2017-08-27T23:56:19.877Z,15.00
2017-08-27T23:58:47.526Z,15.00
